Time,TemperatureF,DewpointF,PressureIn,WindDirection,WindDirectionDegrees,WindSpeedMPH,WindSpeedGustMPH,Humidity,HourlyPrecipIn,Conditions,Clouds,dailyrainin,SoftwareType,DateUTC
2013-05-26 00:01:00,69.5,68.3,30.01,South,191,0.0,0.0,96,0.00,,,0.00,WeatherCatV1.02B3,2013-05-26 05:01:00,
2013-05-26 00:06:00,69.7,68.8,30.01,SE,139,1.0,1.0,97,0.00,,,0.00,WeatherCatV1.02B3,2013-05-26 05:06:00,
2013-05-26 00:11:00,69.8,68.9,30.01,SSE,163,0.0,0.0,97,0.00,,,0.00,WeatherCatV1.02B3,2013-05-26 05:11:00,
2013-05-26 00:16:00,69.9,69.0,30.00,SE,132,0.0,1.0,97,0.00,,,0.00,WeatherCatV1.02B3,2013-05-26 05:16:00,
2013-05-26 00:21:00,70.0,68.8,30.00,SSE,161,0.0,2.0,96,0.00,,,0.00,WeatherCatV1.02B3,2013-05-26 05:21:00,
2013-05-26 00:26:00,70.1,68.9,30.00,SSE,157,0.0,2.0,96,0.00,,,0.00,WeatherCatV1.02B3,2013-05-26 05:26:00,
2013-05-26 00:31:00,70.2,69.0,29.99,SSE,159,0.0,1.0,96,0.00,,,0.00,WeatherCatV1.02B3,2013-05-26 05:31:00,
2013-05-26 00:36:00,70.2,69.0,29.99,SE,136,0.0,0.0,96,0.00,,,0.00,WeatherCatV1.02B3,2013-05-26 05:36:00,
2013-05-26 00:41:00,70.3,69.1,29.99,SE,136,0.0,0.0,96,0.00,,,0.00,WeatherCatV1.02B3,2013-05-26 05:41:00,
2013-05-26 00:46:00,70.3,69.1,29.99,SE,136,0.0,0.0,96,0.00,,,0.00,WeatherCatV1.02B3,2013-05-26 05:46:00,
2013-05-26 00:51:00,70.3,69.1,29.99,SSW,200,0.0,1.0,96,0.00,,,0.00,WeatherCatV1.02B3,2013-05-26 05:51:00,
2013-05-26 00:56:00,70.2,69.0,29.99,SSE,149,0.0,2.0,96,0.00,,,0.00,WeatherCatV1.02B3,2013-05-26 05:56:00,
2013-05-26 01:01:00,70.2,69.0,29.99,SSE,150,0.0,3.0,96,0.00,,,0.00,WeatherCatV1.02B3,2013-05-26 06:01:00,
2013-05-26 01:06:00,70.3,69.1,29.99,South,173,0.0,0.0,96,0.00,,,0.00,WeatherCatV1.02B3,2013-05-26 06:06:00,
2013-05-26 01:11:00,70.3,69.1,29.99,South,173,0.0,0.0,96,0.00,,,0.00,WeatherCatV1.02B3,2013-05-26 06:11:00,
2013-05-26 01:16:00,70.3,69.1,29.99,South,173,0.0,0.0,96,0.00,,,0.00,WeatherCatV1.02B3,2013-05-26 06:16:00,
2013-05-26 01:21:00,70.3,69.1,29.99,South,173,0.0,0.0,96,0.00,,,0.00,WeatherCatV1.02B3,2013-05-26 06:21:00,
2013-05-26 01:26:00,70.3,69.1,29.99,South,173,0.0,0.0,96,0.00,,,0.00,WeatherCatV1.02B3,2013-05-26 06:26:00,
2013-05-26 01:31:00,70.4,69.2,29.98,South,188,0.0,2.0,96,0.00,,,0.00,WeatherCatV1.02B3,2013-05-26 06:31:00,
2013-05-26 01:36:00,70.4,69.2,29.98,SSE,158,0.0,0.0,96,0.00,,,0.00,WeatherCatV1.02B3,2013-05-26 06:36:00,
2013-05-26 01:41:00,70.5,69.3,29.98,SSE,165,0.0,0.0,96,0.00,,,0.00,WeatherCatV1.02B3,2013-05-26 06:41:00,
2013-05-26 01:46:00,70.5,69.3,29.98,SSW,200,0.0,2.0,96,0.00,,,0.00,WeatherCatV1.02B3,2013-05-26 06:46:00,
2013-05-26 01:51:00,70.5,69.3,29.98,South,178,0.0,0.0,96,0.00,,,0.00,WeatherCatV1.02B3,2013-05-26 06:51:00,
2013-05-26 01:56:00,70.5,69.3,29.98,SSW,198,0.0,3.0,96,0.00,,,0.00,WeatherCatV1.02B3,2013-05-26 06:56:00,
2013-05-26 02:01:00,70.5,69.3,29.97,South,173,0.0,1.0,96,0.00,,,0.00,WeatherCatV1.02B3,2013-05-26 07:01:00,
2013-05-26 02:06:00,70.5,69.3,29.97,SE,142,0.0,0.0,96,0.00,,,0.00,WeatherCatV1.02B3,2013-05-26 07:06:00,
2013-05-26 02:11:00,70.6,69.4,29.97,South,190,0.0,2.0,96,0.00,,,0.00,WeatherCatV1.02B3,2013-05-26 07:11:00,
2013-05-26 02:16:00,70.6,69.4,29.97,SSE,162,0.0,4.0,96,0.00,,,0.00,WeatherCatV1.02B3,2013-05-26 07:16:00,
2013-05-26 02:21:00,70.6,69.4,29.97,South,169,0.0,0.0,96,0.00,,,0.00,WeatherCatV1.02B3,2013-05-26 07:21:00,
2013-05-26 02:26:00,70.7,69.5,29.97,SE,139,0.0,0.0,96,0.00,,,0.00,WeatherCatV1.02B3,2013-05-26 07:26:00,
2013-05-26 02:31:00,70.8,69.6,29.96,South,174,0.0,0.0,96,0.00,,,0.00,WeatherCatV1.02B3,2013-05-26 07:31:00,
2013-05-26 02:36:00,70.8,69.6,29.96,SE,136,0.0,2.0,96,0.00,,,0.00,WeatherCatV1.02B3,2013-05-26 07:36:00,
2013-05-26 02:41:00,70.8,69.6,29.96,SSE,151,0.0,4.0,96,0.00,,,0.00,WeatherCatV1.02B3,2013-05-26 07:41:00,
2013-05-26 02:46:00,70.9,69.7,29.96,SSE,147,0.0,0.0,96,0.00,,,0.00,WeatherCatV1.02B3,2013-05-26 07:46:00,
2013-05-26 02:51:00,71.0,69.5,29.96,SSW,195,0.0,1.0,95,0.00,,,0.00,WeatherCatV1.02B3,2013-05-26 07:51:00,
2013-05-26 02:56:00,71.0,69.5,29.96,SE,144,0.0,4.0,95,0.00,,,0.00,WeatherCatV1.02B3,2013-05-26 07:56:00,
2013-05-26 03:01:00,71.0,69.5,29.97,ESE,110,0.0,3.0,95,0.00,,,0.00,WeatherCatV1.02B3,2013-05-26 08:01:00,
2013-05-26 03:06:00,71.0,69.5,29.97,SSE,152,0.0,1.0,95,0.00,,,0.00,WeatherCatV1.02B3,2013-05-26 08:06:00,
2013-05-26 03:11:00,71.1,69.6,29.97,South,175,0.0,0.0,95,0.00,,,0.00,WeatherCatV1.02B3,2013-05-26 08:11:00,
2013-05-26 03:16:00,71.1,69.6,29.97,SE,142,0.0,0.0,95,0.00,,,0.00,WeatherCatV1.02B3,2013-05-26 08:16:00,
2013-05-26 03:21:00,71.1,69.6,29.97,SE,130,0.0,0.0,95,0.00,,,0.00,WeatherCatV1.02B3,2013-05-26 08:21:00,
2013-05-26 03:26:00,71.2,69.7,29.97,SSE,150,2.0,3.0,95,0.00,,,0.00,WeatherCatV1.02B3,2013-05-26 08:26:00,
2013-05-26 03:31:00,71.2,69.7,29.97,South,182,0.0,1.0,95,0.00,,,0.00,WeatherCatV1.02B3,2013-05-26 08:31:00,
2013-05-26 03:36:00,71.2,69.4,29.97,SE,132,2.0,6.0,94,0.00,,,0.00,WeatherCatV1.02B3,2013-05-26 08:36:00,
2013-05-26 03:41:00,71.3,69.5,29.97,SSE,149,0.0,0.0,94,0.00,,,0.00,WeatherCatV1.02B3,2013-05-26 08:41:00,
2013-05-26 03:46:00,71.3,69.5,29.97,SE,145,0.0,2.0,94,0.00,,,0.00,WeatherCatV1.02B3,2013-05-26 08:46:00,
2013-05-26 03:51:00,71.3,69.5,29.97,SSE,153,0.0,7.0,94,0.00,,,0.00,WeatherCatV1.02B3,2013-05-26 08:51:00,
2013-05-26 03:56:00,71.3,69.5,29.97,SSE,155,0.0,1.0,94,0.00,,,0.00,WeatherCatV1.02B3,2013-05-26 08:56:00,
2013-05-26 04:01:00,71.3,69.5,29.97,SSE,165,0.0,5.0,94,0.00,,,0.00,WeatherCatV1.02B3,2013-05-26 09:01:00,
2013-05-26 04:06:00,71.4,69.6,29.97,SSE,163,0.0,1.0,94,0.00,,,0.00,WeatherCatV1.02B3,2013-05-26 09:06:00,
2013-05-26 04:11:00,71.4,69.6,29.97,South,184,1.0,6.0,94,0.00,,,0.00,WeatherCatV1.02B3,2013-05-26 09:11:00,
2013-05-26 04:16:00,71.4,69.6,29.98,ESE,123,0.0,1.0,94,0.00,,,0.00,WeatherCatV1.02B3,2013-05-26 09:16:00,
2013-05-26 04:21:00,71.5,69.7,29.98,SSE,149,0.0,4.0,94,0.00,,,0.00,WeatherCatV1.02B3,2013-05-26 09:21:00,
2013-05-26 04:26:00,71.5,69.7,29.98,SSE,155,0.0,4.0,94,0.00,,,0.00,WeatherCatV1.02B3,2013-05-26 09:26:00,
2013-05-26 04:31:00,71.5,69.7,29.97,SSE,150,0.0,1.0,94,0.00,,,0.00,WeatherCatV1.02B3,2013-05-26 09:31:00,
2013-05-26 04:36:00,71.5,69.7,29.97,ESE,123,4.0,4.0,94,0.00,,,0.00,WeatherCatV1.02B3,2013-05-26 09:36:00,
2013-05-26 04:41:00,71.5,70.0,29.97,South,172,0.0,4.0,95,0.00,,,0.00,WeatherCatV1.02B3,2013-05-26 09:41:00,
2013-05-26 04:46:00,71.5,69.7,29.97,SSE,150,2.0,4.0,94,0.00,,,0.00,WeatherCatV1.02B3,2013-05-26 09:46:00,
2013-05-26 04:51:00,71.5,69.7,29.97,South,177,3.0,5.0,94,0.00,,,0.00,WeatherCatV1.02B3,2013-05-26 09:51:00,
2013-05-26 04:56:00,71.5,69.7,29.97,SSW,196,0.0,0.0,94,0.00,,,0.00,WeatherCatV1.02B3,2013-05-26 09:56:00,
2013-05-26 05:01:00,71.5,69.7,29.97,SSW,192,0.0,1.0,94,0.00,,,0.00,WeatherCatV1.02B3,2013-05-26 10:01:00,
2013-05-26 05:06:00,71.5,70.0,29.97,SSE,163,0.0,1.0,95,0.00,,,0.00,WeatherCatV1.02B3,2013-05-26 10:06:00,
2013-05-26 05:11:00,71.5,70.0,29.97,SW,236,0.0,1.0,95,0.00,,,0.00,WeatherCatV1.02B3,2013-05-26 10:11:00,
2013-05-26 05:16:00,71.5,70.0,29.97,SSW,192,0.0,5.0,95,0.00,,,0.00,WeatherCatV1.02B3,2013-05-26 10:16:00,
2013-05-26 05:21:00,71.6,70.1,29.97,SE,139,0.0,0.0,95,0.00,,,0.00,WeatherCatV1.02B3,2013-05-26 10:21:00,
2013-05-26 05:26:00,71.6,70.1,29.97,SSW,198,0.0,2.0,95,0.00,,,0.00,WeatherCatV1.02B3,2013-05-26 10:26:00,
2013-05-26 05:31:00,71.6,70.1,29.97,SSW,194,5.0,5.0,95,0.00,,,0.00,WeatherCatV1.02B3,2013-05-26 10:31:00,
2013-05-26 05:36:00,71.6,70.1,29.97,South,171,5.0,6.0,95,0.00,,,0.00,WeatherCatV1.02B3,2013-05-26 10:36:00,
2013-05-26 05:41:00,71.7,70.2,29.97,SSE,165,0.0,0.0,95,0.00,,,0.00,WeatherCatV1.02B3,2013-05-26 10:41:00,
2013-05-26 05:46:00,71.7,70.2,29.98,SSE,149,0.0,1.0,95,0.00,,,0.00,WeatherCatV1.02B3,2013-05-26 10:46:00,
2013-05-26 05:51:00,71.7,70.2,29.98,South,190,0.0,3.0,95,0.00,,,0.01,WeatherCatV1.02B3,2013-05-26 10:51:00,
2013-05-26 05:56:00,71.7,70.2,29.98,SE,133,0.0,1.0,95,0.00,,,0.01,WeatherCatV1.02B3,2013-05-26 10:56:00,
2013-05-26 06:01:00,71.7,70.2,29.98,SSE,159,5.0,5.0,95,0.34,,,0.04,WeatherCatV1.02B3,2013-05-26 11:01:00,
2013-05-26 06:06:00,71.6,70.1,29.98,SSW,200,0.0,4.0,95,0.21,,,0.06,WeatherCatV1.02B3,2013-05-26 11:06:00,
2013-05-26 06:11:00,71.6,70.4,29.98,SSW,200,0.0,0.0,96,0.39,,,0.10,WeatherCatV1.02B3,2013-05-26 11:11:00,
2013-05-26 06:16:00,71.5,70.3,29.97,South,172,0.0,1.0,96,0.11,,,0.10,WeatherCatV1.02B3,2013-05-26 11:16:00,
2013-05-26 06:21:00,71.5,70.3,29.97,SSE,166,4.0,4.0,96,0.09,,,0.11,WeatherCatV1.02B3,2013-05-26 11:21:00,
2013-05-26 06:26:00,71.5,70.3,29.97,SE,144,0.0,7.0,96,0.07,,,0.11,WeatherCatV1.02B3,2013-05-26 11:26:00,
2013-05-26 06:31:00,71.4,70.2,29.97,SSE,154,0.0,1.0,96,0.04,,,0.11,WeatherCatV1.02B3,2013-05-26 11:31:00,
2013-05-26 06:36:00,71.4,70.2,29.97,SSW,209,0.0,4.0,96,0.00,,,0.11,WeatherCatV1.02B3,2013-05-26 11:36:00,
2013-05-26 06:41:00,71.4,70.2,29.97,SSE,167,4.0,5.0,96,0.00,,,0.11,WeatherCatV1.02B3,2013-05-26 11:41:00,
2013-05-26 06:46:00,71.5,70.3,29.97,SE,142,3.0,9.0,96,0.00,,,0.11,WeatherCatV1.02B3,2013-05-26 11:46:00,
2013-05-26 06:51:00,71.5,70.3,29.97,South,178,0.0,7.0,96,0.00,,,0.11,WeatherCatV1.02B3,2013-05-26 11:51:00,
2013-05-26 06:56:00,71.5,70.3,29.97,South,179,0.0,0.0,96,0.00,,,0.11,WeatherCatV1.02B3,2013-05-26 11:56:00,
2013-05-26 07:01:00,71.5,70.3,29.97,South,180,0.0,5.0,96,0.00,,,0.11,WeatherCatV1.02B3,2013-05-26 12:01:00,
2013-05-26 07:06:00,71.5,70.3,29.97,South,182,0.0,6.0,96,0.00,,,0.11,WeatherCatV1.02B3,2013-05-26 12:06:00,
2013-05-26 07:11:00,71.5,70.6,29.97,SSE,159,0.0,0.0,97,0.00,,,0.11,WeatherCatV1.02B3,2013-05-26 12:11:00,
2013-05-26 07:16:00,71.6,70.7,29.98,SE,136,0.0,5.0,97,0.00,,,0.11,WeatherCatV1.02B3,2013-05-26 12:16:00,
2013-05-26 07:21:00,71.6,70.7,29.98,East,94,0.0,0.0,97,0.00,,,0.11,WeatherCatV1.02B3,2013-05-26 12:21:00,
2013-05-26 07:26:00,71.7,70.8,29.98,SE,137,0.0,1.0,97,0.00,,,0.11,WeatherCatV1.02B3,2013-05-26 12:26:00,
2013-05-26 07:31:00,71.9,71.0,29.98,SSE,154,1.0,1.0,97,0.00,,,0.11,WeatherCatV1.02B3,2013-05-26 12:31:00,
2013-05-26 07:36:00,72.0,71.1,29.98,South,174,0.0,1.0,97,0.00,,,0.11,WeatherCatV1.02B3,2013-05-26 12:36:00,
2013-05-26 07:41:00,72.0,71.1,29.98,ESE,123,0.0,4.0,97,0.00,,,0.11,WeatherCatV1.02B3,2013-05-26 12:41:00,
2013-05-26 07:46:00,72.1,71.2,29.99,South,177,0.0,8.0,97,0.00,,,0.11,WeatherCatV1.02B3,2013-05-26 12:46:00,
2013-05-26 07:51:00,72.1,71.2,29.99,South,174,0.0,5.0,97,0.00,,,0.11,WeatherCatV1.02B3,2013-05-26 12:51:00,
2013-05-26 07:56:00,72.1,71.2,29.99,South,183,0.0,4.0,97,0.00,,,0.11,WeatherCatV1.02B3,2013-05-26 12:56:00,
2013-05-26 08:01:00,72.2,71.3,30.00,South,188,3.0,7.0,97,0.00,,,0.11,WeatherCatV1.02B3,2013-05-26 13:01:00,
2013-05-26 08:06:00,72.2,71.3,30.00,SE,134,0.0,6.0,97,0.00,,,0.11,WeatherCatV1.02B3,2013-05-26 13:06:00,
2013-05-26 08:11:00,72.2,71.3,30.00,SSE,154,0.0,2.0,97,0.00,,,0.11,WeatherCatV1.02B3,2013-05-26 13:11:00,
2013-05-26 08:16:00,72.3,71.4,30.00,SSE,165,0.0,7.0,97,0.00,,,0.11,WeatherCatV1.02B3,2013-05-26 13:16:00,
2013-05-26 08:21:00,72.3,71.4,30.00,SSE,155,3.0,4.0,97,0.00,,,0.11,WeatherCatV1.02B3,2013-05-26 13:21:00,
2013-05-26 08:26:00,72.4,71.5,30.00,South,178,1.0,5.0,97,0.00,,,0.11,WeatherCatV1.02B3,2013-05-26 13:26:00,
2013-05-26 08:31:00,72.5,71.6,29.99,South,180,2.0,7.0,97,0.00,,,0.11,WeatherCatV1.02B3,2013-05-26 13:31:00,
2013-05-26 08:36:00,72.6,71.7,29.99,South,173,3.0,4.0,97,0.00,,,0.11,WeatherCatV1.02B3,2013-05-26 13:36:00,
2013-05-26 08:41:00,72.8,71.9,29.99,SSE,168,0.0,3.0,97,0.00,,,0.11,WeatherCatV1.02B3,2013-05-26 13:41:00,
2013-05-26 08:46:00,72.9,72.0,30.00,South,183,0.0,1.0,97,0.00,,,0.11,WeatherCatV1.02B3,2013-05-26 13:46:00,
2013-05-26 08:51:00,73.0,72.1,30.00,SSE,149,1.0,3.0,97,0.00,,,0.11,WeatherCatV1.02B3,2013-05-26 13:51:00,
2013-05-26 08:56:00,73.1,72.2,30.00,SSE,164,3.0,6.0,97,0.00,,,0.11,WeatherCatV1.02B3,2013-05-26 13:56:00,
2013-05-26 09:01:00,73.3,72.4,30.00,SE,145,0.0,3.0,97,0.00,,,0.11,WeatherCatV1.02B3,2013-05-26 14:01:00,
2013-05-26 09:06:00,73.5,72.6,30.00,South,171,3.0,5.0,97,0.00,,,0.11,WeatherCatV1.02B3,2013-05-26 14:06:00,
2013-05-26 09:11:00,73.6,72.7,30.00,SSE,166,0.0,8.0,97,0.00,,,0.11,WeatherCatV1.02B3,2013-05-26 14:11:00,
2013-05-26 09:16:00,73.8,72.9,30.00,SSW,192,0.0,10.0,97,0.00,,,0.11,WeatherCatV1.02B3,2013-05-26 14:16:00,
2013-05-26 09:21:00,73.9,72.7,30.00,South,190,0.0,4.0,96,0.00,,,0.11,WeatherCatV1.02B3,2013-05-26 14:21:00,
2013-05-26 09:26:00,74.1,72.9,30.00,SSE,148,1.0,6.0,96,0.00,,,0.11,WeatherCatV1.02B3,2013-05-26 14:26:00,
2013-05-26 09:31:00,74.4,73.2,30.00,SSW,207,1.0,4.0,96,0.00,,,0.11,WeatherCatV1.02B3,2013-05-26 14:31:00,
2013-05-26 09:36:00,74.8,73.3,30.00,ESE,120,3.0,7.0,95,0.00,,,0.11,WeatherCatV1.02B3,2013-05-26 14:36:00,
2013-05-26 09:41:00,75.0,73.5,30.00,South,180,3.0,5.0,95,0.00,,,0.11,WeatherCatV1.02B3,2013-05-26 14:41:00,
2013-05-26 09:46:00,75.1,72.9,30.01,SW,219,0.0,2.0,93,0.00,,,0.11,WeatherCatV1.02B3,2013-05-26 14:46:00,
2013-05-26 09:51:00,75.1,72.9,30.01,South,171,5.0,5.0,93,0.00,,,0.11,WeatherCatV1.02B3,2013-05-26 14:51:00,
2013-05-26 09:56:00,75.0,72.5,30.01,South,184,2.0,9.0,92,0.00,,,0.11,WeatherCatV1.02B3,2013-05-26 14:56:00,
2013-05-26 10:01:00,74.9,72.4,30.01,SW,231,0.0,7.0,92,0.00,,,0.11,WeatherCatV1.02B3,2013-05-26 15:01:00,
2013-05-26 10:06:00,75.0,72.8,30.01,ESE,106,0.0,6.0,93,0.00,,,0.11,WeatherCatV1.02B3,2013-05-26 15:06:00,
2013-05-26 10:11:00,75.2,72.7,30.01,SW,217,2.0,11.0,92,0.00,,,0.11,WeatherCatV1.02B3,2013-05-26 15:11:00,
2013-05-26 10:16:00,75.5,73.0,30.01,SSE,166,0.0,5.0,92,0.00,,,0.11,WeatherCatV1.02B3,2013-05-26 15:16:00,
2013-05-26 10:21:00,75.7,72.9,30.01,SSE,157,1.0,9.0,91,0.00,,,0.11,WeatherCatV1.02B3,2013-05-26 15:21:00,
2013-05-26 10:26:00,75.9,73.1,30.01,South,179,6.0,11.0,91,0.00,,,0.11,WeatherCatV1.02B3,2013-05-26 15:26:00,
2013-05-26 10:31:00,76.0,72.8,30.01,WSW,248,4.0,9.0,90,0.00,,,0.11,WeatherCatV1.02B3,2013-05-26 15:31:00,
2013-05-26 10:36:00,76.1,72.9,30.01,South,174,6.0,11.0,90,0.00,,,0.11,WeatherCatV1.02B3,2013-05-26 15:36:00,
2013-05-26 10:41:00,76.1,72.6,30.01,SW,217,3.0,9.0,89,0.00,,,0.11,WeatherCatV1.02B3,2013-05-26 15:41:00,
2013-05-26 10:46:00,76.2,73.0,30.01,South,175,1.0,5.0,90,0.00,,,0.11,WeatherCatV1.02B3,2013-05-26 15:46:00,
2013-05-26 10:51:00,76.6,73.4,30.01,South,173,3.0,7.0,90,0.00,,,0.11,WeatherCatV1.02B3,2013-05-26 15:51:00,
2013-05-26 10:56:00,77.2,73.7,30.01,South,178,4.0,12.0,89,0.00,,,0.11,WeatherCatV1.02B3,2013-05-26 15:56:00,
2013-05-26 11:01:00,78.0,74.5,29.99,SE,133,4.0,12.0,89,0.00,,,0.11,WeatherCatV1.02B3,2013-05-26 16:01:00,
2013-05-26 11:06:00,78.6,74.7,29.99,South,183,0.0,9.0,88,0.00,,,0.11,WeatherCatV1.02B3,2013-05-26 16:06:00,
2013-05-26 11:11:00,78.9,74.3,29.99,South,169,5.0,10.0,86,0.00,,,0.11,WeatherCatV1.02B3,2013-05-26 16:11:00,
2013-05-26 11:16:00,79.2,73.6,29.99,South,187,2.0,14.0,83,0.00,,,0.11,WeatherCatV1.02B3,2013-05-26 16:16:00,
2013-05-26 11:21:00,79.1,73.5,29.99,SSW,212,2.0,13.0,83,0.00,,,0.11,WeatherCatV1.02B3,2013-05-26 16:21:00,
2013-05-26 11:26:00,78.8,73.2,29.99,South,174,7.0,11.0,83,0.00,,,0.11,WeatherCatV1.02B3,2013-05-26 16:26:00,
2013-05-26 11:31:00,78.8,73.5,29.99,SSW,200,5.0,10.0,84,0.00,,,0.11,WeatherCatV1.02B3,2013-05-26 16:31:00,
2013-05-26 11:36:00,79.2,73.6,29.99,SW,230,6.0,13.0,83,0.00,,,0.11,WeatherCatV1.02B3,2013-05-26 16:36:00,
2013-05-26 11:41:00,79.3,73.3,29.99,South,169,3.0,9.0,82,0.00,,,0.11,WeatherCatV1.02B3,2013-05-26 16:41:00,
2013-05-26 11:46:00,79.6,74.3,29.99,SSW,206,4.0,11.0,84,0.00,,,0.11,WeatherCatV1.02B3,2013-05-26 16:46:00,
2013-05-26 11:51:00,79.9,73.9,29.99,South,169,0.0,5.0,82,0.00,,,0.11,WeatherCatV1.02B3,2013-05-26 16:51:00,
2013-05-26 11:56:00,80.1,73.7,29.99,SSW,193,1.0,8.0,81,0.00,,,0.11,WeatherCatV1.02B3,2013-05-26 16:56:00,
2013-05-26 12:01:00,80.4,74.0,29.98,South,178,0.0,13.0,81,0.00,,,0.11,WeatherCatV1.02B3,2013-05-26 17:01:00,
2013-05-26 12:06:00,80.7,74.3,29.98,WSW,257,0.0,7.0,81,0.00,,,0.11,WeatherCatV1.02B3,2013-05-26 17:06:00,
2013-05-26 12:11:00,81.1,73.9,29.98,South,175,3.0,13.0,79,0.00,,,0.11,WeatherCatV1.02B3,2013-05-26 17:11:00,
2013-05-26 12:16:00,81.1,73.9,29.98,SW,219,0.0,3.0,79,0.00,,,0.11,WeatherCatV1.02B3,2013-05-26 17:16:00,
2013-05-26 12:21:00,81.4,74.2,29.98,South,175,0.0,1.0,79,0.00,,,0.11,WeatherCatV1.02B3,2013-05-26 17:21:00,
2013-05-26 12:26:00,81.6,74.4,29.98,South,178,0.0,11.0,79,0.00,,,0.11,WeatherCatV1.02B3,2013-05-26 17:26:00,
2013-05-26 12:31:00,82.0,74.1,29.97,South,181,6.0,7.0,77,0.00,,,0.11,WeatherCatV1.02B3,2013-05-26 17:31:00,
2013-05-26 12:36:00,82.4,73.7,29.97,WSW,246,0.0,11.0,75,0.00,,,0.11,WeatherCatV1.02B3,2013-05-26 17:36:00,
2013-05-26 12:41:00,82.9,72.9,29.97,SSW,209,4.0,12.0,72,0.00,,,0.11,WeatherCatV1.02B3,2013-05-26 17:41:00,
2013-05-26 12:46:00,83.4,75.0,29.97,NW,308,0.0,7.0,76,0.00,,,0.11,WeatherCatV1.02B3,2013-05-26 17:46:00,
2013-05-26 12:51:00,83.8,75.4,29.97,SE,144,1.0,12.0,76,0.00,,,0.11,WeatherCatV1.02B3,2013-05-26 17:51:00,
2013-05-26 12:56:00,84.1,74.5,29.97,SSW,197,1.0,5.0,73,0.00,,,0.11,WeatherCatV1.02B3,2013-05-26 17:56:00,
2013-05-26 13:01:00,84.2,74.6,29.97,South,188,2.0,6.0,73,0.00,,,0.11,WeatherCatV1.02B3,2013-05-26 18:01:00,
2013-05-26 13:06:00,84.3,73.8,29.97,SSW,213,2.0,11.0,71,0.00,,,0.11,WeatherCatV1.02B3,2013-05-26 18:06:00,
2013-05-26 13:11:00,84.3,74.3,29.97,South,177,9.0,9.0,72,0.00,,,0.11,WeatherCatV1.02B3,2013-05-26 18:11:00,
2013-05-26 13:16:00,84.6,74.6,29.97,SSE,168,0.0,7.0,72,0.00,,,0.11,WeatherCatV1.02B3,2013-05-26 18:16:00,
2013-05-26 13:21:00,84.9,73.6,29.97,SE,138,6.0,7.0,69,0.00,,,0.11,WeatherCatV1.02B3,2013-05-26 18:21:00,
2013-05-26 13:26:00,85.2,74.7,29.97,SSW,205,1.0,12.0,71,0.00,,,0.11,WeatherCatV1.02B3,2013-05-26 18:26:00,
2013-05-26 13:31:00,85.0,74.5,29.96,SSW,196,3.0,9.0,71,0.00,,,0.11,WeatherCatV1.02B3,2013-05-26 18:31:00,
2013-05-26 13:36:00,84.5,73.6,29.96,SW,227,4.0,10.0,70,0.00,,,0.11,WeatherCatV1.02B3,2013-05-26 18:36:00,
2013-05-26 13:41:00,84.4,74.8,29.96,SSW,201,4.0,7.0,73,0.00,,,0.11,WeatherCatV1.02B3,2013-05-26 18:41:00,
2013-05-26 13:46:00,85.0,74.1,29.96,SSW,203,6.0,13.0,70,0.00,,,0.11,WeatherCatV1.02B3,2013-05-26 18:46:00,
2013-05-26 13:51:00,85.1,72.9,29.96,WSW,247,5.0,12.0,67,0.00,,,0.11,WeatherCatV1.02B3,2013-05-26 18:51:00,
2013-05-26 13:56:00,85.2,74.3,29.96,South,177,5.0,8.0,70,0.00,,,0.11,WeatherCatV1.02B3,2013-05-26 18:56:00,
2013-05-26 14:01:00,85.5,74.1,29.95,SE,141,5.0,9.0,69,0.00,,,0.11,WeatherCatV1.02B3,2013-05-26 19:01:00,
2013-05-26 14:06:00,85.8,73.5,29.95,WSW,257,0.0,9.0,67,0.00,,,0.11,WeatherCatV1.02B3,2013-05-26 19:06:00,
2013-05-26 14:11:00,85.9,73.6,29.95,SSW,201,8.0,19.0,67,0.00,,,0.11,WeatherCatV1.02B3,2013-05-26 19:11:00,
2013-05-26 14:16:00,85.8,73.5,29.94,West,266,2.0,6.0,67,0.00,,,0.11,WeatherCatV1.02B3,2013-05-26 19:16:00,
2013-05-26 14:21:00,86.0,73.7,29.94,West,261,3.0,12.0,67,0.00,,,0.11,WeatherCatV1.02B3,2013-05-26 19:21:00,
2013-05-26 14:26:00,85.7,73.0,29.94,South,178,0.0,2.0,66,0.00,,,0.11,WeatherCatV1.02B3,2013-05-26 19:26:00,
2013-05-26 14:31:00,85.2,72.1,29.94,SSW,199,0.0,6.0,65,0.00,,,0.11,WeatherCatV1.02B3,2013-05-26 19:31:00,
2013-05-26 14:36:00,84.8,72.1,29.94,South,186,4.0,10.0,66,0.00,,,0.11,WeatherCatV1.02B3,2013-05-26 19:36:00,
2013-05-26 14:41:00,84.7,72.1,29.94,South,180,2.0,5.0,66,0.00,,,0.11,WeatherCatV1.02B3,2013-05-26 19:41:00,
2013-05-26 14:46:00,84.6,72.8,29.94,SSW,194,0.0,9.0,68,0.00,,,0.11,WeatherCatV1.02B3,2013-05-26 19:46:00,
2013-05-26 14:51:00,84.8,73.5,29.94,SSE,157,1.0,11.0,69,0.00,,,0.11,WeatherCatV1.02B3,2013-05-26 19:51:00,
2013-05-26 14:56:00,85.6,73.8,29.94,SW,219,0.0,4.0,68,0.00,,,0.11,WeatherCatV1.02B3,2013-05-26 19:56:00,
2013-05-26 15:01:00,86.3,73.6,29.93,SSW,201,1.0,10.0,66,0.00,,,0.11,WeatherCatV1.02B3,2013-05-26 20:01:00,
2013-05-26 15:06:00,86.6,72.9,29.93,South,175,4.0,10.0,64,0.00,,,0.11,WeatherCatV1.02B3,2013-05-26 20:06:00,
2013-05-26 15:11:00,86.5,73.8,29.93,SE,138,3.0,7.0,66,0.00,,,0.11,WeatherCatV1.02B3,2013-05-26 20:11:00,
2013-05-26 15:16:00,86.3,73.1,29.93,SSE,167,0.0,3.0,65,0.00,,,0.11,WeatherCatV1.02B3,2013-05-26 20:16:00,
2013-05-26 15:21:00,86.3,73.6,29.93,South,176,2.0,6.0,66,0.00,,,0.11,WeatherCatV1.02B3,2013-05-26 20:21:00,
2013-05-26 15:26:00,86.6,72.5,29.93,SSE,157,0.0,9.0,63,0.00,,,0.11,WeatherCatV1.02B3,2013-05-26 20:26:00,
2013-05-26 15:31:00,87.0,74.2,29.92,SW,219,3.0,6.0,66,0.00,,,0.11,WeatherCatV1.02B3,2013-05-26 20:31:00,
2013-05-26 15:36:00,87.6,74.8,29.92,South,175,0.0,3.0,66,0.00,,,0.11,WeatherCatV1.02B3,2013-05-26 20:36:00,
2013-05-26 15:41:00,88.0,74.3,29.92,South,188,0.0,7.0,64,0.00,,,0.11,WeatherCatV1.02B3,2013-05-26 20:41:00,
2013-05-26 15:46:00,88.1,73.9,29.91,SSE,163,0.0,0.0,63,0.00,,,0.11,WeatherCatV1.02B3,2013-05-26 20:46:00,
2013-05-26 15:51:00,87.9,72.7,29.91,East,92,4.0,10.0,61,0.00,,,0.11,WeatherCatV1.02B3,2013-05-26 20:51:00,
2013-05-26 15:56:00,88.1,74.4,29.91,WSW,258,0.0,3.0,64,0.00,,,0.11,WeatherCatV1.02B3,2013-05-26 20:56:00,
2013-05-26 16:01:00,88.3,72.6,29.91,SW,231,2.0,10.0,60,0.00,,,0.11,WeatherCatV1.02B3,2013-05-26 21:01:00,
2013-05-26 16:06:00,87.8,72.1,29.91,WSW,237,4.0,6.0,60,0.00,,,0.11,WeatherCatV1.02B3,2013-05-26 21:06:00,
2013-05-26 16:12:00,87.5,72.4,29.91,WNW,295,3.0,10.0,61,0.00,,,0.11,WeatherCatV1.02B3,2013-05-26 21:12:00,
2013-05-26 16:17:00,87.8,72.6,29.90,SSE,150,4.0,7.0,61,0.00,,,0.11,WeatherCatV1.02B3,2013-05-26 21:17:00,
2013-05-26 16:22:00,88.0,74.3,29.90,ESE,121,0.0,2.0,64,0.00,,,0.11,WeatherCatV1.02B3,2013-05-26 21:22:00,
2013-05-26 16:27:00,88.0,72.8,29.90,SSE,157,1.0,8.0,61,0.00,,,0.11,WeatherCatV1.02B3,2013-05-26 21:27:00,
2013-05-26 16:32:00,88.2,73.0,29.89,South,184,0.0,6.0,61,0.00,,,0.11,WeatherCatV1.02B3,2013-05-26 21:32:00,
2013-05-26 16:37:00,88.1,72.9,29.89,SSW,203,0.0,6.0,61,0.00,,,0.11,WeatherCatV1.02B3,2013-05-26 21:37:00,
2013-05-26 16:42:00,88.2,73.0,29.89,SSW,210,8.0,9.0,61,0.00,,,0.11,WeatherCatV1.02B3,2013-05-26 21:42:00,
2013-05-26 16:47:00,88.4,73.2,29.89,SSW,192,0.0,10.0,61,0.00,,,0.11,WeatherCatV1.02B3,2013-05-26 21:47:00,
2013-05-26 16:52:00,88.4,72.7,29.89,South,190,0.0,7.0,60,0.00,,,0.11,WeatherCatV1.02B3,2013-05-26 21:52:00,
2013-05-26 16:57:00,88.3,72.6,29.89,SSW,198,0.0,12.0,60,0.00,,,0.11,WeatherCatV1.02B3,2013-05-26 21:57:00,
2013-05-26 17:02:00,88.3,73.1,29.89,ESE,123,4.0,4.0,61,0.00,,,0.11,WeatherCatV1.02B3,2013-05-26 22:02:00,
2013-05-26 17:07:00,87.8,72.6,29.89,SE,146,0.0,10.0,61,0.00,,,0.11,WeatherCatV1.02B3,2013-05-26 22:07:00,
2013-05-26 17:12:00,87.2,73.0,29.89,SSW,203,0.0,6.0,63,0.00,,,0.11,WeatherCatV1.02B3,2013-05-26 22:12:00,
2013-05-26 17:17:00,87.1,72.9,29.89,SW,215,0.0,3.0,63,0.00,,,0.11,WeatherCatV1.02B3,2013-05-26 22:17:00,
2013-05-26 17:22:00,87.3,73.1,29.89,South,182,0.0,9.0,63,0.00,,,0.11,WeatherCatV1.02B3,2013-05-26 22:22:00,
2013-05-26 17:27:00,87.6,72.9,29.89,SE,139,3.0,9.0,62,0.00,,,0.11,WeatherCatV1.02B3,2013-05-26 22:27:00,
2013-05-26 17:32:00,87.8,73.1,29.88,SSW,209,0.0,3.0,62,0.00,,,0.11,WeatherCatV1.02B3,2013-05-26 22:32:00,
2013-05-26 17:37:00,87.8,71.1,29.88,SSE,150,0.0,5.0,58,0.00,,,0.11,WeatherCatV1.02B3,2013-05-26 22:37:00,
2013-05-26 17:42:00,87.7,72.5,29.88,WSW,241,5.0,9.0,61,0.00,,,0.11,WeatherCatV1.02B3,2013-05-26 22:42:00,
2013-05-26 17:47:00,87.7,72.5,29.87,SSW,198,2.0,10.0,61,0.00,,,0.11,WeatherCatV1.02B3,2013-05-26 22:47:00,
2013-05-26 17:52:00,87.6,72.0,29.87,SE,145,4.0,11.0,60,0.00,,,0.11,WeatherCatV1.02B3,2013-05-26 22:52:00,
2013-05-26 17:57:00,87.4,71.8,29.87,SSE,150,4.0,7.0,60,0.00,,,0.11,WeatherCatV1.02B3,2013-05-26 22:57:00,
2013-05-26 18:02:00,87.1,72.0,29.87,SW,219,0.0,4.0,61,0.00,,,0.11,WeatherCatV1.02B3,2013-05-26 23:02:00,
2013-05-26 18:07:00,86.9,72.3,29.87,South,173,0.0,3.0,62,0.00,,,0.11,WeatherCatV1.02B3,2013-05-26 23:07:00,
2013-05-26 18:12:00,86.7,71.6,29.87,SW,219,1.0,5.0,61,0.00,,,0.11,WeatherCatV1.02B3,2013-05-26 23:12:00,
2013-05-26 18:17:00,86.5,71.4,29.86,SSE,166,0.0,3.0,61,0.00,,,0.11,WeatherCatV1.02B3,2013-05-26 23:17:00,
2013-05-26 18:22:00,86.3,72.2,29.86,SSW,211,1.0,1.0,63,0.00,,,0.11,WeatherCatV1.02B3,2013-05-26 23:22:00,
2013-05-26 18:27:00,86.1,71.5,29.86,SSW,204,0.0,9.0,62,0.00,,,0.11,WeatherCatV1.02B3,2013-05-26 23:27:00,
2013-05-26 18:32:00,86.0,71.4,29.85,SSE,161,0.0,5.0,62,0.00,,,0.11,WeatherCatV1.02B3,2013-05-26 23:32:00,
2013-05-26 18:37:00,85.9,72.3,29.85,South,173,0.0,4.0,64,0.00,,,0.11,WeatherCatV1.02B3,2013-05-26 23:37:00,
2013-05-26 18:42:00,85.7,71.6,29.85,South,177,0.0,5.0,63,0.00,,,0.11,WeatherCatV1.02B3,2013-05-26 23:42:00,
2013-05-26 18:47:00,85.5,71.4,29.85,South,175,0.0,2.0,63,0.00,,,0.11,WeatherCatV1.02B3,2013-05-26 23:47:00,
2013-05-26 18:52:00,85.3,71.7,29.85,South,174,0.0,1.0,64,0.00,,,0.11,WeatherCatV1.02B3,2013-05-26 23:52:00,
2013-05-26 18:57:00,85.2,71.6,29.85,South,176,0.0,0.0,64,0.00,,,0.11,WeatherCatV1.02B3,2013-05-26 23:57:00,
2013-05-26 19:02:00,85.0,71.4,29.85,South,188,0.0,2.0,64,0.00,,,0.11,WeatherCatV1.02B3,2013-05-27 00:02:00,
2013-05-26 19:07:00,84.8,71.7,29.85,SSE,153,0.0,0.0,65,0.00,,,0.11,WeatherCatV1.02B3,2013-05-27 00:07:00,
2013-05-26 19:12:00,84.6,71.0,29.85,SE,140,0.0,5.0,64,0.00,,,0.11,WeatherCatV1.02B3,2013-05-27 00:12:00,
2013-05-26 19:17:00,84.4,71.3,29.85,SSW,192,0.0,4.0,65,0.00,,,0.11,WeatherCatV1.02B3,2013-05-27 00:17:00,
2013-05-26 19:22:00,84.3,71.7,29.85,SSE,150,1.0,8.0,66,0.00,,,0.11,WeatherCatV1.02B3,2013-05-27 00:22:00,
2013-05-26 19:27:00,84.1,71.5,29.85,SSE,156,1.0,5.0,66,0.00,,,0.11,WeatherCatV1.02B3,2013-05-27 00:27:00,
2013-05-26 19:32:00,83.9,71.3,29.85,SSE,167,0.0,2.0,66,0.00,,,0.11,WeatherCatV1.02B3,2013-05-27 00:32:00,
2013-05-26 19:37:00,83.8,71.2,29.85,East,93,1.0,4.0,66,0.00,,,0.11,WeatherCatV1.02B3,2013-05-27 00:37:00,
2013-05-26 19:42:00,83.6,71.5,29.85,South,176,0.0,0.0,67,0.00,,,0.11,WeatherCatV1.02B3,2013-05-27 00:42:00,
2013-05-26 19:47:00,83.5,71.4,29.85,SSE,167,0.0,3.0,67,0.00,,,0.11,WeatherCatV1.02B3,2013-05-27 00:47:00,
2013-05-26 19:52:00,83.3,71.6,29.85,SSE,168,0.0,2.0,68,0.00,,,0.11,WeatherCatV1.02B3,2013-05-27 00:52:00,
2013-05-26 19:57:00,83.1,71.4,29.85,SSE,155,0.0,4.0,68,0.00,,,0.11,WeatherCatV1.02B3,2013-05-27 00:57:00,
2013-05-26 20:02:00,82.9,71.7,29.85,SSE,160,0.0,3.0,69,0.00,,,0.11,WeatherCatV1.02B3,2013-05-27 01:02:00,
2013-05-26 20:07:00,82.7,72.3,29.85,SSW,196,0.0,5.0,71,0.00,,,0.11,WeatherCatV1.02B3,2013-05-27 01:07:00,
2013-05-26 20:12:00,82.5,72.5,29.85,SSE,153,0.0,0.0,72,0.00,,,0.11,WeatherCatV1.02B3,2013-05-27 01:12:00,
2013-05-26 20:17:00,82.3,72.8,29.86,South,178,0.0,1.0,73,0.00,,,0.11,WeatherCatV1.02B3,2013-05-27 01:17:00,
2013-05-26 20:22:00,82.0,72.9,29.86,South,183,0.0,1.0,74,0.00,,,0.11,WeatherCatV1.02B3,2013-05-27 01:22:00,
2013-05-26 20:27:00,81.7,73.0,29.86,SSE,148,0.0,1.0,75,0.00,,,0.11,WeatherCatV1.02B3,2013-05-27 01:27:00,
2013-05-26 20:32:00,81.4,72.7,29.86,South,184,0.0,3.0,75,0.00,,,0.11,WeatherCatV1.02B3,2013-05-27 01:32:00,
2013-05-26 20:37:00,81.1,72.4,29.86,SSE,153,2.0,4.0,75,0.00,,,0.11,WeatherCatV1.02B3,2013-05-27 01:37:00,
2013-05-26 20:42:00,80.8,72.5,29.86,SSW,194,0.0,2.0,76,0.00,,,0.11,WeatherCatV1.02B3,2013-05-27 01:42:00,
2013-05-26 20:47:00,80.5,72.6,29.86,SE,136,1.0,2.0,77,0.00,,,0.11,WeatherCatV1.02B3,2013-05-27 01:47:00,
2013-05-26 20:52:00,80.2,72.3,29.86,South,171,1.0,4.0,77,0.00,,,0.11,WeatherCatV1.02B3,2013-05-27 01:52:00,
2013-05-26 20:57:00,80.0,72.1,29.86,ESE,122,0.0,2.0,77,0.00,,,0.11,WeatherCatV1.02B3,2013-05-27 01:57:00,
2013-05-26 21:02:00,79.9,72.4,29.86,East,100,1.0,2.0,78,0.00,,,0.11,WeatherCatV1.02B3,2013-05-27 02:02:00,
2013-05-26 21:07:00,79.8,72.3,29.86,SSE,161,0.0,5.0,78,0.00,,,0.11,WeatherCatV1.02B3,2013-05-27 02:07:00,
2013-05-26 21:12:00,79.7,72.6,29.86,SSE,155,0.0,3.0,79,0.00,,,0.11,WeatherCatV1.02B3,2013-05-27 02:12:00,
2013-05-26 21:17:00,79.7,72.6,29.87,SSE,167,2.0,5.0,79,0.00,,,0.11,WeatherCatV1.02B3,2013-05-27 02:17:00,
2013-05-26 21:22:00,79.7,72.6,29.87,SSE,165,0.0,0.0,79,0.00,,,0.11,WeatherCatV1.02B3,2013-05-27 02:22:00,
2013-05-26 21:27:00,79.6,72.5,29.87,SE,146,0.0,6.0,79,0.00,,,0.11,WeatherCatV1.02B3,2013-05-27 02:27:00,
2013-05-26 21:32:00,79.6,72.5,29.87,SSE,159,0.0,5.0,79,0.00,,,0.11,WeatherCatV1.02B3,2013-05-27 02:32:00,
2013-05-26 21:37:00,79.6,72.5,29.87,South,178,0.0,5.0,79,0.00,,,0.11,WeatherCatV1.02B3,2013-05-27 02:37:00,
2013-05-26 21:42:00,79.6,72.5,29.87,South,176,0.0,1.0,79,0.00,,,0.11,WeatherCatV1.02B3,2013-05-27 02:42:00,
2013-05-26 21:47:00,79.6,72.9,29.88,SSE,163,0.0,3.0,80,0.00,,,0.11,WeatherCatV1.02B3,2013-05-27 02:47:00,
2013-05-26 21:52:00,79.6,72.9,29.88,SE,134,0.0,8.0,80,0.00,,,0.11,WeatherCatV1.02B3,2013-05-27 02:52:00,
2013-05-26 21:57:00,79.5,72.8,29.88,SSE,166,2.0,7.0,80,0.00,,,0.11,WeatherCatV1.02B3,2013-05-27 02:57:00,
2013-05-26 22:02:00,79.4,72.7,29.88,SE,136,3.0,3.0,80,0.00,,,0.11,WeatherCatV1.02B3,2013-05-27 03:02:00,
2013-05-26 22:07:00,79.3,72.6,29.88,SSW,194,0.0,0.0,80,0.00,,,0.11,WeatherCatV1.02B3,2013-05-27 03:07:00,
2013-05-26 22:12:00,79.3,72.6,29.88,SE,142,0.0,6.0,80,0.00,,,0.11,WeatherCatV1.02B3,2013-05-27 03:12:00,
2013-05-26 22:17:00,79.2,72.5,29.89,SSE,161,0.0,4.0,80,0.00,,,0.11,WeatherCatV1.02B3,2013-05-27 03:17:00,
2013-05-26 22:22:00,79.1,72.4,29.89,SSE,164,0.0,11.0,80,0.00,,,0.11,WeatherCatV1.02B3,2013-05-27 03:22:00,
2013-05-26 22:27:00,79.1,72.4,29.89,SW,234,0.0,7.0,80,0.00,,,0.11,WeatherCatV1.02B3,2013-05-27 03:27:00,
2013-05-26 22:32:00,79.0,72.3,29.90,SE,130,2.0,7.0,80,0.00,,,0.11,WeatherCatV1.02B3,2013-05-27 03:32:00,
2013-05-26 22:37:00,78.9,72.2,29.90,SE,146,0.0,5.0,80,0.00,,,0.11,WeatherCatV1.02B3,2013-05-27 03:37:00,
2013-05-26 22:42:00,78.9,72.2,29.90,SE,145,0.0,4.0,80,0.00,,,0.11,WeatherCatV1.02B3,2013-05-27 03:42:00,
2013-05-26 22:47:00,78.8,72.1,29.90,SE,140,3.0,6.0,80,0.00,,,0.11,WeatherCatV1.02B3,2013-05-27 03:47:00,
2013-05-26 22:52:00,78.7,72.0,29.90,SSE,168,3.0,3.0,80,0.00,,,0.11,WeatherCatV1.02B3,2013-05-27 03:52:00,
2013-05-26 22:53:00,78.7,72.0,29.90,ESE,116,1.0,5.0,80,0.00,,,0.11,WeatherCatV1.02B3,2013-05-27 03:53:00,
2013-05-26 22:58:00,78.6,71.9,29.90,South,174,0.0,3.0,80,0.00,,,0.11,WeatherCatV1.02B3,2013-05-27 03:58:00,
2013-05-26 23:01:00,78.5,71.8,29.90,SW,219,0.0,4.0,80,0.00,,,0.11,WeatherCatV1.02B3,2013-05-27 04:01:00,
2013-05-26 23:06:00,78.4,71.7,29.90,SSE,159,0.0,2.0,80,0.00,,,0.11,WeatherCatV1.02B3,2013-05-27 04:06:00,
2013-05-26 23:11:00,78.3,71.6,29.90,South,180,1.0,3.0,80,0.00,,,0.11,WeatherCatV1.02B3,2013-05-27 04:11:00,
2013-05-26 23:16:00,78.1,71.4,29.90,SSE,165,0.0,6.0,80,0.00,,,0.11,WeatherCatV1.02B3,2013-05-27 04:16:00,
2013-05-26 23:21:00,78.0,71.3,29.90,SSE,159,0.0,0.0,80,0.00,,,0.11,WeatherCatV1.02B3,2013-05-27 04:21:00,
2013-05-26 23:26:00,77.9,71.2,29.90,SE,138,3.0,3.0,80,0.00,,,0.11,WeatherCatV1.02B3,2013-05-27 04:26:00,
2013-05-26 23:31:00,77.8,71.1,29.90,South,188,0.0,7.0,80,0.00,,,0.11,WeatherCatV1.02B3,2013-05-27 04:31:00,
2013-05-26 23:36:00,77.7,71.0,29.90,SSW,197,0.0,0.0,80,0.00,,,0.11,WeatherCatV1.02B3,2013-05-27 04:36:00,
2013-05-26 23:41:00,77.6,71.3,29.90,South,174,0.0,5.0,81,0.00,,,0.11,WeatherCatV1.02B3,2013-05-27 04:41:00,
2013-05-26 23:46:00,77.5,71.2,29.90,South,182,0.0,2.0,81,0.00,,,0.11,WeatherCatV1.02B3,2013-05-27 04:46:00,
2013-05-26 23:51:00,77.4,71.1,29.90,South,169,0.0,5.0,81,0.00,,,0.11,WeatherCatV1.02B3,2013-05-27 04:51:00,
2013-05-26 23:56:00,77.3,70.6,29.90,SE,142,0.0,5.0,80,0.00,,,0.11,WeatherCatV1.02B3,2013-05-27 04:56:00,